Terminal Aerodrome Forecast
Issued by NWS

Current Version | Previous Version | Graphics & Text | Print | Product List | Glossary On
Versions: 1 2 3 4 5 6 7 8 9 10 11 12 13 14 15
717
FTUS41 KPBZ 221122
TAFMGW
TAF
KMGW 221122Z 2212/2312 01011KT P6SM -RA OVC035
     FM221400 02009KT P6SM -RA OVC030
     FM221900 01008KT P6SM -RA OVC035
     FM222100 01008KT P6SM VCSH OVC040
     FM230300 05006KT P6SM VCSH BKN080
     FM230800 06006KT P6SM BKN060=

USA.gov is the U.S. government's official web portal to all federal, state and local government web resources and services.